sensor_id;sensor_type;location;lat;lon;timestamp;P1;durP1;ratioP1;P2;durP2;ratioP2
46815;SDS011;32787;53.316;8.670;2023-03-04T00:01:49;15.98;;;2.88;;
46815;SDS011;32787;53.316;8.670;2023-03-04T00:04:15;19.92;;;4.55;;
46815;SDS011;32787;53.316;8.670;2023-03-04T00:06:41;28.98;;;3.40;;
46815;SDS011;32787;53.316;8.670;2023-03-04T00:09:07;22.73;;;3.08;;
46815;SDS011;32787;53.316;8.670;2023-03-04T00:11:33;23.50;;;2.78;;
46815;SDS011;32787;53.316;8.670;2023-03-04T00:13:58;27.42;;;4.22;;
46815;SDS011;32787;53.316;8.670;2023-03-04T00:16:24;23.73;;;2.72;;
46815;SDS011;32787;53.316;8.670;2023-03-04T00:18:53;21.80;;;2.95;;
46815;SDS011;32787;53.316;8.670;2023-03-04T00:21:20;18.48;;;2.90;;
46815;SDS011;32787;53.316;8.670;2023-03-04T00:23:46;21.70;;;3.55;;
46815;SDS011;32787;53.316;8.670;2023-03-04T00:26:11;22.08;;;2.60;;
46815;SDS011;32787;53.316;8.670;2023-03-04T00:28:38;25.95;;;3.22;;
46815;SDS011;32787;53.316;8.670;2023-03-04T00:31:04;23.52;;;3.28;;
46815;SDS011;32787;53.316;8.670;2023-03-04T00:33:30;22.00;;;2.60;;
46815;SDS011;32787;53.316;8.670;2023-03-04T00:35:56;25.77;;;3.63;;
46815;SDS011;32787;53.316;8.670;2023-03-04T00:38:22;23.23;;;2.78;;
46815;SDS011;32787;53.316;8.670;2023-03-04T00:40:47;21.52;;;3.20;;
46815;SDS011;32787;53.316;8.670;2023-03-04T00:43:13;17.92;;;2.67;;
46815;SDS011;32787;53.316;8.670;2023-03-04T00:45:39;22.77;;;2.38;;
46815;SDS011;32787;53.316;8.670;2023-03-04T00:48:04;18.33;;;2.50;;
46815;SDS011;32787;53.316;8.670;2023-03-04T00:50:30;15.57;;;2.25;;
46815;SDS011;32787;53.316;8.670;2023-03-04T00:52:56;15.15;;;2.58;;
46815;SDS011;32787;53.316;8.670;2023-03-04T00:55:21;23.73;;;3.10;;
46815;SDS011;32787;53.316;8.670;2023-03-04T00:57:48;20.50;;;2.40;;
46815;SDS011;32787;53.316;8.670;2023-03-04T01:00:13;14.80;;;2.30;;
46815;SDS011;32787;53.316;8.670;2023-03-04T01:02:39;22.77;;;2.22;;
46815;SDS011;32787;53.316;8.670;2023-03-04T01:05:05;12.93;;;1.73;;
46815;SDS011;32787;53.316;8.670;2023-03-04T01:07:32;10.57;;;2.10;;
46815;SDS011;32787;53.316;8.670;2023-03-04T01:09:57;16.60;;;2.10;;
46815;SDS011;32787;53.316;8.670;2023-03-04T01:12:23;12.15;;;1.83;;
46815;SDS011;32787;53.316;8.670;2023-03-04T01:14:48;18.63;;;2.90;;
46815;SDS011;32787;53.316;8.670;2023-03-04T01:17:14;19.88;;;2.13;;
46815;SDS011;32787;53.316;8.670;2023-03-04T01:19:40;12.57;;;1.92;;
46815;SDS011;32787;53.316;8.670;2023-03-04T01:22:05;15.20;;;2.10;;
46815;SDS011;32787;53.316;8.670;2023-03-04T01:24:31;17.13;;;1.92;;
46815;SDS011;32787;53.316;8.670;2023-03-04T01:26:56;20.48;;;1.95;;
46815;SDS011;32787;53.316;8.670;2023-03-04T01:29:22;18.95;;;2.08;;
46815;SDS011;32787;53.316;8.670;2023-03-04T01:31:48;11.23;;;1.92;;
46815;SDS011;32787;53.316;8.670;2023-03-04T01:34:13;12.68;;;2.20;;
46815;SDS011;32787;53.316;8.670;2023-03-04T01:36:39;15.70;;;2.30;;
46815;SDS011;32787;53.316;8.670;2023-03-04T01:39:04;8.90;;;1.63;;
46815;SDS011;32787;53.316;8.670;2023-03-04T01:41:30;17.05;;;2.80;;
46815;SDS011;32787;53.316;8.670;2023-03-04T01:43:56;15.10;;;2.58;;
46815;SDS011;32787;53.316;8.670;2023-03-04T01:46:24;20.23;;;2.75;;
46815;SDS011;32787;53.316;8.670;2023-03-04T01:48:50;15.75;;;2.55;;
46815;SDS011;32787;53.316;8.670;2023-03-04T01:51:17;14.07;;;2.30;;
46815;SDS011;32787;53.316;8.670;2023-03-04T01:53:44;19.08;;;2.45;;
46815;SDS011;32787;53.316;8.670;2023-03-04T01:56:14;13.48;;;2.30;;
46815;SDS011;32787;53.316;8.670;2023-03-04T01:58:43;10.32;;;1.90;;
46815;SDS011;32787;53.316;8.670;2023-03-04T02:01:11;15.30;;;1.80;;
46815;SDS011;32787;53.316;8.670;2023-03-04T02:03:38;10.80;;;1.83;;
46815;SDS011;32787;53.316;8.670;2023-03-04T02:06:04;15.65;;;1.88;;
46815;SDS011;32787;53.316;8.670;2023-03-04T02:08:30;10.55;;;1.80;;
46815;SDS011;32787;53.316;8.670;2023-03-04T02:10:56;11.18;;;1.77;;
46815;SDS011;32787;53.316;8.670;2023-03-04T02:13:21;13.93;;;1.70;;
46815;SDS011;32787;53.316;8.670;2023-03-04T02:15:47;17.17;;;1.63;;
46815;SDS011;32787;53.316;8.670;2023-03-04T02:18:17;10.30;;;1.45;;
46815;SDS011;32787;53.316;8.670;2023-03-04T02:23:27;14.00;;;1.70;;
46815;SDS011;32787;53.316;8.670;2023-03-04T02:28:45;13.82;;;1.77;;
46815;SDS011;32787;53.316;8.670;2023-03-04T02:33:59;11.88;;;1.77;;
46815;SDS011;32787;53.316;8.670;2023-03-04T02:36:30;17.40;;;2.42;;
46815;SDS011;32787;53.316;8.670;2023-03-04T02:38:59;17.83;;;2.08;;
46815;SDS011;32787;53.316;8.670;2023-03-04T02:41:28;18.30;;;1.73;;
46815;SDS011;32787;53.316;8.670;2023-03-04T02:43:54;13.80;;;2.33;;
46815;SDS011;32787;53.316;8.670;2023-03-04T02:46:20;15.43;;;2.60;;
46815;SDS011;32787;53.316;8.670;2023-03-04T02:48:47;11.10;;;1.77;;
46815;SDS011;32787;53.316;8.670;2023-03-04T02:51:13;18.30;;;2.05;;
46815;SDS011;32787;53.316;8.670;2023-03-04T02:53:39;13.02;;;2.10;;
46815;SDS011;32787;53.316;8.670;2023-03-04T02:56:05;14.93;;;2.55;;
46815;SDS011;32787;53.316;8.670;2023-03-04T02:58:31;14.90;;;1.95;;
46815;SDS011;32787;53.316;8.670;2023-03-04T03:00:57;14.25;;;2.00;;
46815;SDS011;32787;53.316;8.670;2023-03-04T03:03:22;15.98;;;2.05;;
46815;SDS011;32787;53.316;8.670;2023-03-04T03:05:48;12.60;;;1.65;;
46815;SDS011;32787;53.316;8.670;2023-03-04T03:08:14;12.30;;;1.60;;
46815;SDS011;32787;53.316;8.670;2023-03-04T03:10:39;14.75;;;2.03;;
46815;SDS011;32787;53.316;8.670;2023-03-04T03:13:05;18.67;;;3.42;;
46815;SDS011;32787;53.316;8.670;2023-03-04T03:15:30;12.45;;;1.70;;
46815;SDS011;32787;53.316;8.670;2023-03-04T03:17:56;11.38;;;1.40;;
46815;SDS011;32787;53.316;8.670;2023-03-04T03:20:22;11.95;;;2.60;;
46815;SDS011;32787;53.316;8.670;2023-03-04T03:22:48;14.15;;;2.80;;
46815;SDS011;32787;53.316;8.670;2023-03-04T03:25:14;10.80;;;1.58;;
46815;SDS011;32787;53.316;8.670;2023-03-04T03:27:40;10.02;;;1.60;;
46815;SDS011;32787;53.316;8.670;2023-03-04T03:30:06;19.63;;;2.20;;
46815;SDS011;32787;53.316;8.670;2023-03-04T03:32:35;13.67;;;1.90;;
46815;SDS011;32787;53.316;8.670;2023-03-04T03:35:01;14.48;;;1.90;;
46815;SDS011;32787;53.316;8.670;2023-03-04T03:37:27;12.07;;;2.05;;
46815;SDS011;32787;53.316;8.670;2023-03-04T03:39:53;16.33;;;2.25;;
46815;SDS011;32787;53.316;8.670;2023-03-04T03:42:19;14.70;;;1.70;;
46815;SDS011;32787;53.316;8.670;2023-03-04T03:44:44;12.48;;;1.83;;
46815;SDS011;32787;53.316;8.670;2023-03-04T03:47:10;13.57;;;1.92;;
46815;SDS011;32787;53.316;8.670;2023-03-04T03:49:36;10.20;;;2.50;;
46815;SDS011;32787;53.316;8.670;2023-03-04T03:52:01;10.00;;;2.28;;
46815;SDS011;32787;53.316;8.670;2023-03-04T03:54:27;13.27;;;1.80;;
46815;SDS011;32787;53.316;8.670;2023-03-04T03:56:52;15.10;;;2.33;;
46815;SDS011;32787;53.316;8.670;2023-03-04T03:59:18;18.98;;;2.38;;
46815;SDS011;32787;53.316;8.670;2023-03-04T04:01:44;18.23;;;2.10;;
46815;SDS011;32787;53.316;8.670;2023-03-04T04:04:09;12.05;;;1.88;;
46815;SDS011;32787;53.316;8.670;2023-03-04T04:06:35;10.45;;;1.75;;
46815;SDS011;32787;53.316;8.670;2023-03-04T04:09:01;12.98;;;1.65;;
46815;SDS011;32787;53.316;8.670;2023-03-04T04:11:27;17.83;;;2.13;;
46815;SDS011;32787;53.316;8.670;2023-03-04T04:13:52;15.18;;;1.60;;
46815;SDS011;32787;53.316;8.670;2023-03-04T04:16:18;15.48;;;2.15;;
46815;SDS011;32787;53.316;8.670;2023-03-04T04:18:44;10.63;;;2.00;;
46815;SDS011;32787;53.316;8.670;2023-03-04T04:21:10;18.02;;;2.13;;
46815;SDS011;32787;53.316;8.670;2023-03-04T04:23:35;12.70;;;1.98;;
46815;SDS011;32787;53.316;8.670;2023-03-04T04:26:01;14.07;;;2.13;;
46815;SDS011;32787;53.316;8.670;2023-03-04T04:28:27;14.65;;;1.95;;
46815;SDS011;32787;53.316;8.670;2023-03-04T04:30:52;14.52;;;3.10;;
46815;SDS011;32787;53.316;8.670;2023-03-04T04:33:18;8.40;;;1.92;;
46815;SDS011;32787;53.316;8.670;2023-03-04T04:35:44;9.88;;;1.92;;
46815;SDS011;32787;53.316;8.670;2023-03-04T04:38:09;11.13;;;2.35;;
46815;SDS011;32787;53.316;8.670;2023-03-04T04:40:35;17.38;;;2.25;;
46815;SDS011;32787;53.316;8.670;2023-03-04T04:43:01;12.63;;;1.95;;
46815;SDS011;32787;53.316;8.670;2023-03-04T04:45:27;15.43;;;2.38;;
46815;SDS011;32787;53.316;8.670;2023-03-04T04:47:53;13.93;;;2.17;;
46815;SDS011;32787;53.316;8.670;2023-03-04T04:50:21;18.35;;;2.15;;
46815;SDS011;32787;53.316;8.670;2023-03-04T04:52:47;12.57;;;2.17;;
46815;SDS011;32787;53.316;8.670;2023-03-04T04:55:13;14.35;;;2.33;;
46815;SDS011;32787;53.316;8.670;2023-03-04T04:57:39;14.77;;;2.80;;
46815;SDS011;32787;53.316;8.670;2023-03-04T05:00:04;13.55;;;2.30;;
46815;SDS011;32787;53.316;8.670;2023-03-04T05:02:31;14.85;;;2.70;;
46815;SDS011;32787;53.316;8.670;2023-03-04T05:05:00;14.60;;;2.73;;
46815;SDS011;32787;53.316;8.670;2023-03-04T05:07:27;13.95;;;2.50;;
46815;SDS011;32787;53.316;8.670;2023-03-04T05:09:52;11.02;;;2.08;;
46815;SDS011;32787;53.316;8.670;2023-03-04T05:12:18;11.15;;;2.58;;
46815;SDS011;32787;53.316;8.670;2023-03-04T05:14:43;17.33;;;3.05;;
46815;SDS011;32787;53.316;8.670;2023-03-04T05:17:09;11.18;;;2.40;;
46815;SDS011;32787;53.316;8.670;2023-03-04T05:19:35;15.35;;;2.33;;
46815;SDS011;32787;53.316;8.670;2023-03-04T05:22:00;11.23;;;2.55;;
46815;SDS011;32787;53.316;8.670;2023-03-04T05:24:26;13.43;;;2.30;;
46815;SDS011;32787;53.316;8.670;2023-03-04T05:26:51;14.93;;;2.13;;
46815;SDS011;32787;53.316;8.670;2023-03-04T05:29:17;11.45;;;2.22;;
46815;SDS011;32787;53.316;8.670;2023-03-04T05:31:43;9.60;;;2.03;;
46815;SDS011;32787;53.316;8.670;2023-03-04T05:34:08;18.25;;;2.47;;
46815;SDS011;32787;53.316;8.670;2023-03-04T05:36:34;12.73;;;2.05;;
46815;SDS011;32787;53.316;8.670;2023-03-04T05:38:59;16.23;;;2.08;;
46815;SDS011;32787;53.316;8.670;2023-03-04T05:41:25;16.35;;;2.33;;
46815;SDS011;32787;53.316;8.670;2023-03-04T05:43:51;17.27;;;2.60;;
46815;SDS011;32787;53.316;8.670;2023-03-04T05:46:17;21.20;;;2.47;;
46815;SDS011;32787;53.316;8.670;2023-03-04T05:48:49;13.55;;;2.25;;
46815;SDS011;32787;53.316;8.670;2023-03-04T05:51:16;18.23;;;2.70;;
46815;SDS011;32787;53.316;8.670;2023-03-04T05:53:42;14.95;;;2.58;;
46815;SDS011;32787;53.316;8.670;2023-03-04T05:56:13;22.48;;;2.33;;
46815;SDS011;32787;53.316;8.670;2023-03-04T05:58:43;16.33;;;2.70;;
46815;SDS011;32787;53.316;8.670;2023-03-04T06:01:08;17.00;;;2.42;;
46815;SDS011;32787;53.316;8.670;2023-03-04T06:03:35;23.33;;;3.10;;
46815;SDS011;32787;53.316;8.670;2023-03-04T06:06:01;21.75;;;3.40;;
46815;SDS011;32787;53.316;8.670;2023-03-04T06:08:27;26.42;;;4.40;;
46815;SDS011;32787;53.316;8.670;2023-03-04T06:10:53;15.98;;;3.25;;
46815;SDS011;32787;53.316;8.670;2023-03-04T06:13:20;19.83;;;2.35;;
46815;SDS011;32787;53.316;8.670;2023-03-04T06:15:46;25.48;;;3.25;;
46815;SDS011;32787;53.316;8.670;2023-03-04T06:18:17;29.95;;;3.63;;
46815;SDS011;32787;53.316;8.670;2023-03-04T06:20:42;31.30;;;3.60;;
46815;SDS011;32787;53.316;8.670;2023-03-04T06:23:09;36.60;;;4.25;;
46815;SDS011;32787;53.316;8.670;2023-03-04T06:25:35;30.05;;;3.80;;
46815;SDS011;32787;53.316;8.670;2023-03-04T06:28:00;22.35;;;3.20;;
46815;SDS011;32787;53.316;8.670;2023-03-04T06:30:27;20.20;;;2.97;;
46815;SDS011;32787;53.316;8.670;2023-03-04T06:32:53;25.70;;;3.08;;
46815;SDS011;32787;53.316;8.670;2023-03-04T06:35:18;26.80;;;3.97;;
46815;SDS011;32787;53.316;8.670;2023-03-04T06:37:44;24.92;;;3.28;;
46815;SDS011;32787;53.316;8.670;2023-03-04T06:40:10;23.73;;;4.03;;
46815;SDS011;32787;53.316;8.670;2023-03-04T06:42:36;25.17;;;3.20;;
46815;SDS011;32787;53.316;8.670;2023-03-04T06:45:02;24.90;;;3.40;;
46815;SDS011;32787;53.316;8.670;2023-03-04T06:47:28;21.98;;;3.30;;
46815;SDS011;32787;53.316;8.670;2023-03-04T06:49:54;32.15;;;3.65;;
46815;SDS011;32787;53.316;8.670;2023-03-04T06:52:20;30.02;;;3.90;;
46815;SDS011;32787;53.316;8.670;2023-03-04T06:54:45;25.35;;;4.32;;
46815;SDS011;32787;53.316;8.670;2023-03-04T06:57:11;30.10;;;3.85;;
46815;SDS011;32787;53.316;8.670;2023-03-04T06:59:37;23.05;;;3.85;;
46815;SDS011;32787;53.316;8.670;2023-03-04T07:02:03;25.58;;;3.78;;
46815;SDS011;32787;53.316;8.670;2023-03-04T07:04:29;29.42;;;3.22;;
46815;SDS011;32787;53.316;8.670;2023-03-04T07:06:55;23.45;;;2.75;;
46815;SDS011;32787;53.316;8.670;2023-03-04T07:09:21;22.52;;;4.90;;
46815;SDS011;32787;53.316;8.670;2023-03-04T07:11:46;28.77;;;3.78;;
46815;SDS011;32787;53.316;8.670;2023-03-04T07:14:12;29.58;;;3.40;;
46815;SDS011;32787;53.316;8.670;2023-03-04T07:16:38;28.40;;;4.03;;
46815;SDS011;32787;53.316;8.670;2023-03-04T07:19:04;26.92;;;3.60;;
46815;SDS011;32787;53.316;8.670;2023-03-04T07:21:29;28.17;;;3.30;;
46815;SDS011;32787;53.316;8.670;2023-03-04T07:23:55;20.92;;;4.13;;
46815;SDS011;32787;53.316;8.670;2023-03-04T07:26:21;26.73;;;5.30;;
46815;SDS011;32787;53.316;8.670;2023-03-04T07:28:47;25.75;;;3.33;;
46815;SDS011;32787;53.316;8.670;2023-03-04T07:31:18;31.73;;;4.80;;
46815;SDS011;32787;53.316;8.670;2023-03-04T07:33:56;32.97;;;3.30;;
46815;SDS011;32787;53.316;8.670;2023-03-04T07:36:23;24.73;;;3.67;;
46815;SDS011;32787;53.316;8.670;2023-03-04T07:38:49;26.70;;;4.68;;
46815;SDS011;32787;53.316;8.670;2023-03-04T07:41:16;30.42;;;4.22;;
46815;SDS011;32787;53.316;8.670;2023-03-04T07:43:42;31.15;;;3.92;;
46815;SDS011;32787;53.316;8.670;2023-03-04T07:46:09;22.95;;;3.38;;
46815;SDS011;32787;53.316;8.670;2023-03-04T07:48:35;30.65;;;4.57;;
46815;SDS011;32787;53.316;8.670;2023-03-04T07:51:08;26.40;;;3.90;;
46815;SDS011;32787;53.316;8.670;2023-03-04T07:53:35;23.67;;;3.72;;
46815;SDS011;32787;53.316;8.670;2023-03-04T07:56:01;34.20;;;3.58;;
46815;SDS011;32787;53.316;8.670;2023-03-04T07:58:27;32.42;;;5.25;;
46815;SDS011;32787;53.316;8.670;2023-03-04T08:00:53;35.70;;;5.65;;
46815;SDS011;32787;53.316;8.670;2023-03-04T08:03:19;25.00;;;3.55;;
46815;SDS011;32787;53.316;8.670;2023-03-04T08:05:44;25.75;;;3.90;;
46815;SDS011;32787;53.316;8.670;2023-03-04T08:08:10;29.65;;;3.88;;
46815;SDS011;32787;53.316;8.670;2023-03-04T08:10:36;26.92;;;3.30;;
46815;SDS011;32787;53.316;8.670;2023-03-04T08:13:03;17.10;;;3.55;;
46815;SDS011;32787;53.316;8.670;2023-03-04T08:15:30;24.33;;;3.10;;
46815;SDS011;32787;53.316;8.670;2023-03-04T08:17:57;15.55;;;2.38;;
46815;SDS011;32787;53.316;8.670;2023-03-04T08:20:22;25.15;;;2.53;;
46815;SDS011;32787;53.316;8.670;2023-03-04T08:22:48;21.45;;;2.70;;
46815;SDS011;32787;53.316;8.670;2023-03-04T08:25:15;19.25;;;2.13;;
46815;SDS011;32787;53.316;8.670;2023-03-04T08:27:40;20.88;;;2.83;;
46815;SDS011;32787;53.316;8.670;2023-03-04T08:30:06;15.80;;;2.40;;
46815;SDS011;32787;53.316;8.670;2023-03-04T08:32:32;17.05;;;2.45;;
46815;SDS011;32787;53.316;8.670;2023-03-04T08:34:58;16.80;;;2.28;;
46815;SDS011;32787;53.316;8.670;2023-03-04T08:37:26;17.67;;;2.53;;
46815;SDS011;32787;53.316;8.670;2023-03-04T08:39:54;23.05;;;3.05;;
46815;SDS011;32787;53.316;8.670;2023-03-04T08:42:20;19.02;;;3.10;;
46815;SDS011;32787;53.316;8.670;2023-03-04T08:44:46;16.08;;;3.25;;
46815;SDS011;32787;53.316;8.670;2023-03-04T08:47:11;26.15;;;4.00;;
46815;SDS011;32787;53.316;8.670;2023-03-04T08:49:37;23.25;;;3.38;;
46815;SDS011;32787;53.316;8.670;2023-03-04T08:52:03;20.73;;;3.67;;
46815;SDS011;32787;53.316;8.670;2023-03-04T08:54:28;30.60;;;3.40;;
46815;SDS011;32787;53.316;8.670;2023-03-04T08:56:54;24.00;;;3.50;;
46815;SDS011;32787;53.316;8.670;2023-03-04T08:59:20;30.95;;;4.13;;
46815;SDS011;32787;53.316;8.670;2023-03-04T09:01:45;22.27;;;4.20;;
46815;SDS011;32787;53.316;8.670;2023-03-04T09:04:11;31.05;;;3.78;;
46815;SDS011;32787;53.316;8.670;2023-03-04T09:06:37;19.80;;;3.58;;
46815;SDS011;32787;53.316;8.670;2023-03-04T09:09:03;19.95;;;4.13;;
46815;SDS011;32787;53.316;8.670;2023-03-04T09:11:29;23.27;;;3.33;;
46815;SDS011;32787;53.316;8.670;2023-03-04T09:13:55;25.58;;;3.88;;
46815;SDS011;32787;53.316;8.670;2023-03-04T09:16:21;26.83;;;4.07;;
46815;SDS011;32787;53.316;8.670;2023-03-04T09:18:46;21.02;;;3.45;;
46815;SDS011;32787;53.316;8.670;2023-03-04T09:21:12;25.33;;;4.07;;
46815;SDS011;32787;53.316;8.670;2023-03-04T09:23:38;19.10;;;3.28;;
46815;SDS011;32787;53.316;8.670;2023-03-04T09:28:49;22.80;;;3.65;;
46815;SDS011;32787;53.316;8.670;2023-03-04T09:31:19;20.92;;;3.15;;
46815;SDS011;32787;53.316;8.670;2023-03-04T09:33:46;20.67;;;3.17;;
46815;SDS011;32787;53.316;8.670;2023-03-04T09:36:12;21.33;;;3.28;;
46815;SDS011;32787;53.316;8.670;2023-03-04T09:38:38;17.17;;;2.80;;
46815;SDS011;32787;53.316;8.670;2023-03-04T09:41:14;16.60;;;3.40;;
46815;SDS011;32787;53.316;8.670;2023-03-04T09:43:43;19.38;;;3.15;;
46815;SDS011;32787;53.316;8.670;2023-03-04T09:46:15;27.33;;;3.80;;
46815;SDS011;32787;53.316;8.670;2023-03-04T09:48:49;17.27;;;3.80;;
46815;SDS011;32787;53.316;8.670;2023-03-04T09:51:21;23.40;;;3.92;;
46815;SDS011;32787;53.316;8.670;2023-03-04T09:56:33;21.80;;;4.07;;
46815;SDS011;32787;53.316;8.670;2023-03-04T10:01:41;27.88;;;4.72;;
46815;SDS011;32787;53.316;8.670;2023-03-04T10:04:13;23.77;;;4.15;;
46815;SDS011;32787;53.316;8.670;2023-03-04T10:06:50;26.20;;;4.18;;
46815;SDS011;32787;53.316;8.670;2023-03-04T10:12:06;20.42;;;3.83;;
46815;SDS011;32787;53.316;8.670;2023-03-04T10:14:39;24.05;;;3.88;;
46815;SDS011;32787;53.316;8.670;2023-03-04T10:17:21;24.48;;;3.38;;
46815;SDS011;32787;53.316;8.670;2023-03-04T10:22:41;21.60;;;4.25;;
46815;SDS011;32787;53.316;8.670;2023-03-04T10:25:22;26.88;;;4.05;;
46815;SDS011;32787;53.316;8.670;2023-03-04T10:27:54;19.67;;;3.63;;
46815;SDS011;32787;53.316;8.670;2023-03-04T10:33:12;19.85;;;3.47;;
46815;SDS011;32787;53.316;8.670;2023-03-04T10:35:41;26.77;;;4.47;;
46815;SDS011;32787;53.316;8.670;2023-03-04T10:38:10;28.00;;;3.72;;
46815;SDS011;32787;53.316;8.670;2023-03-04T10:40:38;21.20;;;3.58;;
46815;SDS011;32787;53.316;8.670;2023-03-04T10:43:11;32.92;;;3.83;;
46815;SDS011;32787;53.316;8.670;2023-03-04T10:45:39;32.17;;;3.88;;
46815;SDS011;32787;53.316;8.670;2023-03-04T10:48:05;17.92;;;3.75;;
46815;SDS011;32787;53.316;8.670;2023-03-04T10:50:31;25.67;;;3.55;;
46815;SDS011;32787;53.316;8.670;2023-03-04T10:52:57;27.95;;;3.40;;
46815;SDS011;32787;53.316;8.670;2023-03-04T10:55:44;24.48;;;4.18;;
46815;SDS011;32787;53.316;8.670;2023-03-04T10:58:12;26.52;;;3.80;;
46815;SDS011;32787;53.316;8.670;2023-03-04T11:00:40;21.58;;;3.78;;
46815;SDS011;32787;53.316;8.670;2023-03-04T11:05:50;19.55;;;3.40;;
46815;SDS011;32787;53.316;8.670;2023-03-04T11:08:18;21.00;;;3.63;;
46815;SDS011;32787;53.316;8.670;2023-03-04T11:10:48;24.20;;;3.20;;
46815;SDS011;32787;53.316;8.670;2023-03-04T11:13:18;18.02;;;3.75;;
46815;SDS011;32787;53.316;8.670;2023-03-04T11:15:55;22.77;;;3.45;;
46815;SDS011;32787;53.316;8.670;2023-03-04T11:20:57;25.80;;;4.28;;
46815;SDS011;32787;53.316;8.670;2023-03-04T11:26:03;22.15;;;3.13;;
46815;SDS011;32787;53.316;8.670;2023-03-04T11:31:22;23.38;;;4.07;;
46815;SDS011;32787;53.316;8.670;2023-03-04T11:34:00;36.63;;;4.22;;
46815;SDS011;32787;53.316;8.670;2023-03-04T11:39:38;23.70;;;3.58;;
46815;SDS011;32787;53.316;8.670;2023-03-04T11:44:42;26.80;;;3.75;;
46815;SDS011;32787;53.316;8.670;2023-03-04T11:52:36;21.30;;;3.40;;
46815;SDS011;32787;53.316;8.670;2023-03-04T11:55:42;26.73;;;4.97;;
46815;SDS011;32787;53.316;8.670;2023-03-04T12:01:54;22.80;;;4.30;;
46815;SDS011;32787;53.316;8.670;2023-03-04T12:12:41;26.75;;;3.42;;
46815;SDS011;32787;53.316;8.670;2023-03-04T12:15:19;24.00;;;3.95;;
46815;SDS011;32787;53.316;8.670;2023-03-04T12:32:27;24.73;;;4.40;;
46815;SDS011;32787;53.316;8.670;2023-03-04T12:35:26;21.75;;;3.47;;
46815;SDS011;32787;53.316;8.670;2023-03-04T12:43:24;23.30;;;4.13;;
46815;SDS011;32787;53.316;8.670;2023-03-04T12:46:10;22.35;;;3.65;;
46815;SDS011;32787;53.316;8.670;2023-03-04T12:48:41;19.75;;;2.60;;
46815;SDS011;32787;53.316;8.670;2023-03-04T12:56:35;18.80;;;3.05;;
46815;SDS011;32787;53.316;8.670;2023-03-04T12:59:20;19.45;;;3.53;;
46815;SDS011;32787;53.316;8.670;2023-03-04T13:15:36;27.23;;;3.75;;
46815;SDS011;32787;53.316;8.670;2023-03-04T13:21:03;23.35;;;3.30;;
46815;SDS011;32787;53.316;8.670;2023-03-04T13:23:31;27.33;;;3.08;;
46815;SDS011;32787;53.316;8.670;2023-03-04T13:31:11;17.08;;;2.22;;
46815;SDS011;32787;53.316;8.670;2023-03-04T13:33:49;16.77;;;2.17;;
46815;SDS011;32787;53.316;8.670;2023-03-04T13:41:45;15.25;;;2.33;;
46815;SDS011;32787;53.316;8.670;2023-03-04T13:47:13;16.88;;;2.92;;
46815;SDS011;32787;53.316;8.670;2023-03-04T13:49:42;17.50;;;2.58;;
46815;SDS011;32787;53.316;8.670;2023-03-04T13:57:57;19.13;;;2.50;;
46815;SDS011;32787;53.316;8.670;2023-03-04T14:00:23;24.77;;;2.92;;
46815;SDS011;32787;53.316;8.670;2023-03-04T14:02:50;19.17;;;3.40;;
46815;SDS011;32787;53.316;8.670;2023-03-04T14:05:15;17.75;;;2.60;;
46815;SDS011;32787;53.316;8.670;2023-03-04T14:07:41;19.90;;;3.03;;
46815;SDS011;32787;53.316;8.670;2023-03-04T14:12:39;18.02;;;3.38;;
46815;SDS011;32787;53.316;8.670;2023-03-04T14:15:24;18.75;;;3.30;;
46815;SDS011;32787;53.316;8.670;2023-03-04T14:17:52;15.95;;;3.17;;
46815;SDS011;32787;53.316;8.670;2023-03-04T14:20:28;18.95;;;2.95;;
46815;SDS011;32787;53.316;8.670;2023-03-04T14:22:59;21.13;;;2.72;;
46815;SDS011;32787;53.316;8.670;2023-03-04T14:25:34;17.20;;;3.17;;
46815;SDS011;32787;53.316;8.670;2023-03-04T14:28:19;19.45;;;2.65;;
46815;SDS011;32787;53.316;8.670;2023-03-04T14:30:52;19.17;;;2.45;;
46815;SDS011;32787;53.316;8.670;2023-03-04T14:33:21;15.48;;;2.50;;
46815;SDS011;32787;53.316;8.670;2023-03-04T14:35:55;16.33;;;2.72;;
46815;SDS011;32787;53.316;8.670;2023-03-04T14:38:29;16.63;;;2.55;;
46815;SDS011;32787;53.316;8.670;2023-03-04T14:43:38;14.07;;;2.47;;
46815;SDS011;32787;53.316;8.670;2023-03-04T14:46:11;16.90;;;2.25;;
46815;SDS011;32787;53.316;8.670;2023-03-04T14:48:39;15.85;;;2.10;;
46815;SDS011;32787;53.316;8.670;2023-03-04T14:51:55;12.10;;;2.45;;
46815;SDS011;32787;53.316;8.670;2023-03-04T14:54:02;14.20;;;2.00;;
46815;SDS011;32787;53.316;8.670;2023-03-04T14:56:28;13.15;;;2.50;;
46815;SDS011;32787;53.316;8.670;2023-03-04T14:58:56;16.77;;;1.98;;
46815;SDS011;32787;53.316;8.670;2023-03-04T15:01:28;10.30;;;2.25;;
46815;SDS011;32787;53.316;8.670;2023-03-04T15:03:57;15.27;;;1.90;;
46815;SDS011;32787;53.316;8.670;2023-03-04T15:06:25;17.70;;;2.53;;
46815;SDS011;32787;53.316;8.670;2023-03-04T15:09:00;18.23;;;2.42;;
46815;SDS011;32787;53.316;8.670;2023-03-04T15:11:30;17.92;;;2.13;;
46815;SDS011;32787;53.316;8.670;2023-03-04T15:22:31;18.15;;;2.88;;
46815;SDS011;32787;53.316;8.670;2023-03-04T15:24:58;19.02;;;2.55;;
46815;SDS011;32787;53.316;8.670;2023-03-04T15:27:25;13.35;;;2.55;;
46815;SDS011;32787;53.316;8.670;2023-03-04T15:29:52;13.07;;;2.20;;
46815;SDS011;32787;53.316;8.670;2023-03-04T15:32:29;16.95;;;2.53;;
46815;SDS011;32787;53.316;8.670;2023-03-04T15:34:55;16.65;;;2.00;;
46815;SDS011;32787;53.316;8.670;2023-03-04T15:37:22;20.33;;;2.70;;
46815;SDS011;32787;53.316;8.670;2023-03-04T15:39:50;26.70;;;3.05;;
46815;SDS011;32787;53.316;8.670;2023-03-04T15:42:17;20.90;;;2.72;;
46815;SDS011;32787;53.316;8.670;2023-03-04T15:44:43;12.00;;;2.58;;
46815;SDS011;32787;53.316;8.670;2023-03-04T15:47:09;15.77;;;2.90;;
46815;SDS011;32787;53.316;8.670;2023-03-04T15:49:38;17.00;;;2.65;;
46815;SDS011;32787;53.316;8.670;2023-03-04T15:52:05;17.50;;;2.80;;
46815;SDS011;32787;53.316;8.670;2023-03-04T15:54:36;21.45;;;3.45;;
46815;SDS011;32787;53.316;8.670;2023-03-04T15:57:03;15.63;;;2.70;;
46815;SDS011;32787;53.316;8.670;2023-03-04T15:59:33;21.95;;;2.67;;
46815;SDS011;32787;53.316;8.670;2023-03-04T16:01:58;28.25;;;3.85;;
46815;SDS011;32787;53.316;8.670;2023-03-04T16:04:24;22.17;;;3.80;;
46815;SDS011;32787;53.316;8.670;2023-03-04T16:06:50;15.95;;;3.20;;
46815;SDS011;32787;53.316;8.670;2023-03-04T16:09:16;20.27;;;3.50;;
46815;SDS011;32787;53.316;8.670;2023-03-04T16:11:43;20.52;;;3.22;;
46815;SDS011;32787;53.316;8.670;2023-03-04T16:14:12;24.23;;;3.78;;
46815;SDS011;32787;53.316;8.670;2023-03-04T16:16:39;22.75;;;4.15;;
46815;SDS011;32787;53.316;8.670;2023-03-04T16:19:05;27.67;;;3.65;;
46815;SDS011;32787;53.316;8.670;2023-03-04T16:21:31;19.70;;;3.30;;
46815;SDS011;32787;53.316;8.670;2023-03-04T16:23:57;27.48;;;3.63;;
46815;SDS011;32787;53.316;8.670;2023-03-04T16:26:24;19.02;;;3.20;;
46815;SDS011;32787;53.316;8.670;2023-03-04T16:28:51;22.52;;;3.63;;
46815;SDS011;32787;53.316;8.670;2023-03-04T16:31:18;21.83;;;3.17;;
46815;SDS011;32787;53.316;8.670;2023-03-04T16:33:44;22.00;;;3.72;;
46815;SDS011;32787;53.316;8.670;2023-03-04T16:36:28;25.55;;;5.20;;
46815;SDS011;32787;53.316;8.670;2023-03-04T16:38:54;18.30;;;2.80;;
46815;SDS011;32787;53.316;8.670;2023-03-04T16:41:22;15.00;;;3.42;;
46815;SDS011;32787;53.316;8.670;2023-03-04T16:43:51;24.55;;;3.97;;
46815;SDS011;32787;53.316;8.670;2023-03-04T16:46:17;25.50;;;3.50;;
46815;SDS011;32787;53.316;8.670;2023-03-04T16:48:43;20.63;;;2.55;;
46815;SDS011;32787;53.316;8.670;2023-03-04T16:51:18;26.60;;;3.17;;
46815;SDS011;32787;53.316;8.670;2023-03-04T16:53:51;22.67;;;3.50;;